createdAt,value
2022-10-24T00:02:37.245Z,96181.81
2022-10-24T00:05:34.100Z,96189.25
2022-10-24T00:08:30.914Z,96200.47
2022-10-24T00:11:28.739Z,96196.25
2022-10-24T00:14:26.059Z,96206.63
2022-10-24T00:17:22.898Z,96205.28
2022-10-24T00:20:19.813Z,96208.00
2022-10-24T00:23:16.883Z,96206.91
2022-10-24T00:26:14.297Z,96213.84
2022-10-24T00:29:11.987Z,96214.63
2022-10-24T00:32:09.205Z,96213.72
2022-10-24T00:35:06.705Z,96218.94
2022-10-24T00:38:03.532Z,96216.56
2022-10-24T00:41:00.385Z,96217.88
2022-10-24T00:44:24.890Z,96214.69
2022-10-24T00:47:27.040Z,96212.78
2022-10-24T00:50:23.973Z,96210.16
2022-10-24T00:53:22.291Z,96213.13
2022-10-24T00:56:24.913Z,96215.66
2022-10-24T00:59:22.466Z,96215.19
2022-10-24T01:02:19.563Z,96217.69
2022-10-24T01:05:18.899Z,96211.56
2022-10-24T01:08:36.667Z,96200.22
2022-10-24T01:12:15.239Z,96207.88
2022-10-24T01:15:28.764Z,96204.47
2022-10-24T01:18:49.980Z,96206.38
2022-10-24T01:21:55.748Z,96203.78
2022-10-24T01:25:19.953Z,96203.34
2022-10-24T01:28:27.268Z,96202.41
2022-10-24T01:31:34.228Z,96207.25
2022-10-24T01:34:47.503Z,96210.84
2022-10-24T01:38:14.947Z,96210.78
2022-10-24T01:41:21.190Z,96206.59
2022-10-24T01:44:26.238Z,96199.66
2022-10-24T01:47:49.113Z,96196.53
2022-10-24T01:50:48.170Z,96190.41
2022-10-24T01:53:46.590Z,96189.69
2022-10-24T01:56:43.521Z,96174.28
2022-10-24T01:59:58.729Z,96173.53
2022-10-24T02:03:39.032Z,96176.16
2022-10-24T02:06:40.884Z,96178.84
2022-10-24T02:09:39.881Z,96182.31
2022-10-24T02:12:42.591Z,96183.91
2022-10-24T02:15:46.689Z,96190.25
2022-10-24T02:18:44.520Z,96175.56
2022-10-24T02:22:07.267Z,96185.03
2022-10-24T02:25:33.541Z,96183.59
2022-10-24T02:28:38.707Z,96161.78
2022-10-24T02:31:43.259Z,96170.19
2022-10-24T02:34:42.185Z,96171.38
2022-10-24T02:37:51.730Z,96159.16
2022-10-24T02:40:50.693Z,96152.75
2022-10-24T02:43:49.758Z,96157.28
2022-10-24T02:46:48.092Z,96140.19
2022-10-24T02:49:44.977Z,96153.81
2022-10-24T02:52:43.923Z,96141.16
2022-10-24T02:55:41.753Z,96145.56
2022-10-24T02:58:38.618Z,96137.69
2022-10-24T03:01:35.649Z,96149.22
2022-10-24T03:04:32.659Z,96152.31
2022-10-24T03:10:27.332Z,96143.66
2022-10-24T03:13:24.201Z,96156.66
2022-10-24T03:16:21.034Z,96157.75
2022-10-24T03:19:17.993Z,96156.81
2022-10-24T03:22:14.842Z,96161.06
2022-10-24T03:25:11.967Z,96148.25
2022-10-24T03:28:08.820Z,96149.22
2022-10-24T03:31:06.488Z,96147.56
2022-10-24T03:34:03.346Z,96150.47
2022-10-24T03:37:00.214Z,96148.09
2022-10-24T03:39:57.089Z,96140.03
2022-10-24T03:42:53.900Z,96140.91
2022-10-24T03:45:54.458Z,96140.19
2022-10-24T03:48:52.345Z,96131.97
2022-10-24T03:51:49.277Z,96129.75
2022-10-24T03:54:46.309Z,96125.16
2022-10-24T03:57:43.299Z,96132.63
2022-10-24T04:00:41.514Z,96134.81
2022-10-24T04:03:38.431Z,96146.84
2022-10-24T04:06:36.567Z,96155.06
2022-10-24T04:09:33.750Z,96154.19
2022-10-24T04:12:30.587Z,96153.09
2022-10-24T04:15:27.521Z,96157.03
2022-10-24T04:18:24.618Z,96165.59
2022-10-24T04:21:22.083Z,96147.78
2022-10-24T04:24:19.192Z,96155.59
2022-10-24T04:27:16.664Z,96153.88
2022-10-24T04:30:16.703Z,96150.97
2022-10-24T04:33:15.943Z,96146.84
2022-10-24T04:36:12.940Z,96153.91
2022-10-24T04:39:09.796Z,96151.66
2022-10-24T04:42:06.644Z,96161.47
2022-10-24T04:45:03.848Z,96161.81
2022-10-24T04:48:00.691Z,96166.84
2022-10-24T04:50:57.712Z,96168.69
2022-10-24T04:53:54.657Z,96179.22
2022-10-24T04:56:51.506Z,96182.13
2022-10-24T04:59:48.360Z,96182.66
2022-10-24T05:02:45.357Z,96178.31
2022-10-24T05:05:42.303Z,96188.41
2022-10-24T05:08:39.244Z,96187.78
2022-10-24T05:11:36.185Z,96175.25
2022-10-24T05:14:33.156Z,96186.25
2022-10-24T05:17:30.068Z,96189.75
2022-10-24T05:20:27.721Z,96173.41
2022-10-24T05:23:25.387Z,96168.63
2022-10-24T05:26:22.245Z,96177.03
2022-10-24T05:29:19.115Z,96173.44
2022-10-24T05:32:15.944Z,96182.38
2022-10-24T05:35:12.941Z,96165.84
2022-10-24T05:38:09.961Z,96160.31
2022-10-24T05:41:06.769Z,96153.72
2022-10-24T05:44:03.849Z,96125.41
2022-10-24T05:47:00.771Z,96140.69
2022-10-24T05:49:57.591Z,96152.47
2022-10-24T05:52:54.470Z,96148.38
2022-10-24T05:55:51.396Z,96134.66
2022-10-24T05:58:48.215Z,96123.72
2022-10-24T06:01:45.149Z,96123.06
2022-10-24T06:04:42.054Z,96124.50
2022-10-24T06:07:39.576Z,96128.97
2022-10-24T06:10:36.862Z,96147.84
2022-10-24T06:13:36.073Z,96160.38
2022-10-24T06:16:34.152Z,96187.56
2022-10-24T06:19:31.228Z,96193.88
2022-10-24T06:22:29.755Z,96222.59
2022-10-24T06:25:26.647Z,96253.19
2022-10-24T06:28:23.740Z,96273.13
2022-10-24T06:31:20.886Z,96267.56
2022-10-24T06:34:17.881Z,96231.25
2022-10-24T06:37:15.136Z,96226.88
2022-10-24T06:40:12.244Z,96274.13
2022-10-24T06:43:09.610Z,96259.84
2022-10-24T06:46:09.523Z,96260.56
2022-10-24T06:49:06.869Z,96237.72
2022-10-24T06:52:04.166Z,96234.31
2022-10-24T06:55:01.008Z,96237.22
2022-10-24T06:57:57.838Z,96244.03
2022-10-24T07:00:54.785Z,96244.59
2022-10-24T07:03:52.528Z,96247.66
2022-10-24T07:06:49.374Z,96256.97
2022-10-24T07:09:56.454Z,96256.66
2022-10-24T07:12:53.339Z,96241.59
2022-10-24T07:15:54.266Z,96244.38
2022-10-24T07:18:51.193Z,96256.16
2022-10-24T07:21:48.026Z,96255.66
2022-10-24T07:24:46.130Z,96256.72
2022-10-24T07:27:42.953Z,96248.88
2022-10-24T07:30:40.205Z,96270.94
2022-10-24T07:33:39.220Z,96271.41
2022-10-24T07:36:41.378Z,96264.13
2022-10-24T07:39:39.891Z,96253.88
2022-10-24T07:42:36.773Z,96273.59
2022-10-24T07:45:33.660Z,96283.44
2022-10-24T07:48:30.476Z,96273.56
2022-10-24T07:51:31.551Z,96266.19
2022-10-24T07:54:30.679Z,96252.03
2022-10-24T07:57:29.945Z,96253.06
2022-10-24T08:00:26.783Z,96245.88
2022-10-24T08:03:23.651Z,96258.53
2022-10-24T08:06:24.637Z,96269.47
2022-10-24T08:09:21.772Z,96270.50
2022-10-24T08:12:18.677Z,96282.13
2022-10-24T08:15:15.574Z,96272.91
2022-10-24T08:18:12.453Z,96270.00
2022-10-24T08:21:13.491Z,96268.38
2022-10-24T08:24:10.396Z,96264.19
2022-10-24T08:27:07.234Z,96266.13
2022-10-24T08:30:05.216Z,96254.94
2022-10-24T08:33:02.032Z,96249.09
2022-10-24T08:36:04.275Z,96244.72
2022-10-24T08:39:02.494Z,96233.72
2022-10-24T08:42:07.100Z,96234.13
2022-10-24T08:45:04.431Z,96221.09
2022-10-24T08:48:09.069Z,96215.38
2022-10-24T08:51:36.386Z,96223.03
2022-10-24T08:54:42.386Z,96231.56
2022-10-24T08:57:39.945Z,96219.28
2022-10-24T09:00:44.938Z,96217.28
2022-10-24T09:04:06.390Z,96220.03
2022-10-24T09:07:04.125Z,96220.13
2022-10-24T09:10:24.282Z,96211.06
2022-10-24T09:13:23.819Z,96218.44
2022-10-24T09:16:24.069Z,96215.31
2022-10-24T09:19:27.528Z,96206.13
2022-10-24T09:22:28.560Z,96202.78
2022-10-24T09:25:34.971Z,96218.53
2022-10-24T09:28:37.882Z,96209.22
2022-10-24T09:31:35.464Z,96216.00
2022-10-24T09:34:32.369Z,96207.16
2022-10-24T09:37:56.063Z,96225.56
2022-10-24T09:40:58.991Z,96219.66
2022-10-24T09:44:04.461Z,96235.28
2022-10-24T09:47:04.345Z,96233.28
2022-10-24T09:50:01.223Z,96232.63
2022-10-24T09:52:59.638Z,96234.88
2022-10-24T09:56:12.497Z,96254.19
2022-10-24T09:59:58.583Z,96238.50
2022-10-24T10:03:23.642Z,96245.56
2022-10-24T10:06:21.521Z,96244.53
2022-10-24T10:09:32.878Z,96255.53
2022-10-24T10:12:34.893Z,96256.28
2022-10-24T10:15:39.146Z,96253.19
2022-10-24T10:18:38.802Z,96265.28
2022-10-24T10:22:03.853Z,96267.25
2022-10-24T10:25:01.073Z,96259.03
2022-10-24T10:28:01.059Z,96263.53
2022-10-24T10:31:00.995Z,96253.63
2022-10-24T10:34:21.211Z,96253.09
2022-10-24T10:37:31.401Z,96261.19
2022-10-24T10:40:56.098Z,96266.56
2022-10-24T10:44:05.437Z,96258.69
2022-10-24T10:47:35.547Z,96246.38
2022-10-24T10:51:10.275Z,96263.63
2022-10-24T10:54:31.464Z,96259.41
2022-10-24T10:57:49.299Z,96258.78
2022-10-24T11:01:22.949Z,96244.69
2022-10-24T11:05:19.103Z,96258.47
2022-10-24T11:08:25.167Z,96251.09
2022-10-24T11:11:44.457Z,96245.25
2022-10-24T11:15:03.603Z,96234.59
2022-10-24T11:18:40.376Z,96239.75
2022-10-24T11:21:39.557Z,96241.69
2022-10-24T11:25:05.928Z,96237.28
2022-10-24T11:28:49.897Z,96234.38
2022-10-24T11:31:54.324Z,96229.09
2022-10-24T11:35:33.128Z,96230.44
2022-10-24T11:38:32.544Z,96221.38
2022-10-24T11:41:51.175Z,96211.03
2022-10-24T11:45:11.919Z,96229.34
2022-10-24T11:48:44.917Z,96229.56
2022-10-24T11:51:55.113Z,96218.19
2022-10-24T11:55:20.778Z,96211.34
2022-10-24T11:58:22.732Z,96214.16
2022-10-24T12:01:58.679Z,96227.19
2022-10-24T12:05:20.170Z,96208.44
2022-10-24T12:08:51.157Z,96220.56
2022-10-24T12:11:56.948Z,96226.72
2022-10-24T12:15:46.947Z,96227.63
2022-10-24T12:18:51.366Z,96205.28
2022-10-24T12:22:02.437Z,96207.19
2022-10-24T12:25:32.351Z,96213.28
2022-10-24T12:28:29.366Z,96211.13
2022-10-24T12:31:35.814Z,96203.19
2022-10-24T12:34:49.198Z,96201.91
2022-10-24T12:37:47.089Z,96205.31
2022-10-24T12:40:55.664Z,96208.09
2022-10-24T12:44:46.235Z,96196.31
2022-10-24T12:48:04.680Z,96200.59
2022-10-24T12:51:31.113Z,96196.09
2022-10-24T12:54:44.103Z,96185.53
2022-10-24T12:57:46.417Z,96192.81
2022-10-24T13:00:58.976Z,96199.56
2022-10-24T13:04:42.375Z,96189.78
2022-10-24T13:08:03.739Z,96181.06
2022-10-24T13:11:28.424Z,96177.22
2022-10-24T13:15:05.250Z,96164.28
2022-10-24T13:18:14.681Z,96165.06
2022-10-24T13:21:52.993Z,96166.56
2022-10-24T13:24:49.836Z,96156.59
2022-10-24T13:28:06.689Z,96151.63
2022-10-24T13:31:03.424Z,96144.88
2022-10-24T13:34:34.317Z,96148.56
2022-10-24T13:37:47.204Z,96144.72
2022-10-24T13:40:44.766Z,96150.38
2022-10-24T13:43:52.501Z,96148.47
2022-10-24T13:47:27.065Z,96150.13
2022-10-24T13:51:02.699Z,96146.88
2022-10-24T13:54:09.042Z,96143.72
2022-10-24T13:57:47.802Z,96151.34
2022-10-24T14:01:00.258Z,96152.13
2022-10-24T14:03:59.243Z,96152.13
2022-10-24T14:07:08.494Z,96155.97
2022-10-24T14:10:12.663Z,96144.81
2022-10-24T14:13:17.105Z,96151.13
2022-10-24T14:16:14.836Z,96157.59
2022-10-24T14:19:28.391Z,96161.81
2022-10-24T14:22:46.821Z,96152.06
2022-10-24T14:25:43.945Z,96157.41
2022-10-24T14:28:55.789Z,96156.09
2022-10-24T14:32:14.067Z,96157.25
2022-10-24T14:35:16.141Z,96158.56
2022-10-24T14:38:16.257Z,96170.22
2022-10-24T14:41:13.688Z,96169.88
2022-10-24T14:44:16.778Z,96171.50
2022-10-24T14:47:31.253Z,96180.25
2022-10-24T14:50:43.730Z,96172.47
2022-10-24T14:53:42.740Z,96187.78
2022-10-24T14:56:40.200Z,96168.31
2022-10-24T14:59:39.549Z,96173.59
2022-10-24T15:02:42.976Z,96170.13
2022-10-24T15:05:40.760Z,96176.56
2022-10-24T15:08:45.871Z,96174.63
2022-10-24T15:11:45.193Z,96177.09
2022-10-24T15:14:49.001Z,96171.13
2022-10-24T15:17:46.378Z,96178.13
2022-10-24T15:20:46.915Z,96176.75
2022-10-24T15:24:00.444Z,96171.38
2022-10-24T15:27:13.355Z,96175.88
2022-10-24T15:30:15.313Z,96183.63
2022-10-24T15:33:12.145Z,96191.84
2022-10-24T15:36:33.719Z,96191.47
2022-10-24T15:39:30.793Z,96190.03
2022-10-24T15:42:29.929Z,96192.72
2022-10-24T15:45:27.295Z,96189.25
2022-10-24T15:48:24.334Z,96181.25
2022-10-24T15:51:24.755Z,96197.00
2022-10-24T15:54:23.224Z,96194.63
2022-10-24T15:57:20.042Z,96195.97
2022-10-24T16:00:20.868Z,96188.13
2022-10-24T16:03:23.013Z,96199.69
2022-10-24T16:06:21.893Z,96200.56
2022-10-24T16:09:26.500Z,96200.91
2022-10-24T16:12:23.385Z,96201.25
2022-10-24T16:15:34.495Z,96193.19
2022-10-24T16:18:31.385Z,96195.66
2022-10-24T16:21:28.222Z,96203.47
2022-10-24T16:24:27.061Z,96194.97
2022-10-24T16:27:23.967Z,96203.94
2022-10-24T16:30:24.582Z,96207.19
2022-10-24T16:33:22.410Z,96203.81
2022-10-24T16:36:22.326Z,96208.00
2022-10-24T16:39:21.891Z,96206.84
2022-10-24T16:42:20.106Z,96215.16
2022-10-24T16:45:17.805Z,96209.22
2022-10-24T16:48:14.804Z,96210.78
2022-10-24T16:51:18.398Z,96218.06
2022-10-24T16:54:15.264Z,96226.59
2022-10-24T16:57:12.144Z,96226.78
2022-10-24T17:00:14.237Z,96233.31
2022-10-24T17:03:11.454Z,96227.03
2022-10-24T17:06:08.472Z,96226.00
2022-10-24T17:09:05.385Z,96239.81
2022-10-24T17:12:02.665Z,96224.09
2022-10-24T17:14:59.742Z,96228.84
2022-10-24T17:17:56.575Z,96236.22
2022-10-24T17:21:00.171Z,96242.25
2022-10-24T17:23:57.396Z,96251.09
2022-10-24T17:26:54.750Z,96246.53
2022-10-24T17:29:52.085Z,96242.94
2022-10-24T17:32:49.696Z,96258.31
2022-10-24T17:35:53.005Z,96258.28
2022-10-24T17:39:04.230Z,96253.91
2022-10-24T17:42:03.844Z,96259.75
2022-10-24T17:45:01.176Z,96260.66
2022-10-24T17:47:58.240Z,96258.56
2022-10-24T17:50:58.394Z,96264.13
2022-10-24T17:53:55.328Z,96268.84
2022-10-24T17:56:52.211Z,96267.06
2022-10-24T17:59:49.096Z,96264.94
2022-10-24T18:02:51.893Z,96266.41
2022-10-24T18:05:48.736Z,96271.34
2022-10-24T18:08:45.637Z,96264.59
2022-10-24T18:11:43.324Z,96261.00
2022-10-24T18:14:40.188Z,96270.53
2022-10-24T18:17:37.381Z,96272.44
2022-10-24T18:20:35.131Z,96281.06
2022-10-24T18:23:31.979Z,96276.22
2022-10-24T18:26:29.495Z,96278.91
2022-10-24T18:29:26.416Z,96272.22
2022-10-24T18:32:23.371Z,96271.44
2022-10-24T18:35:22.353Z,96273.00
2022-10-24T18:38:19.176Z,96269.16
2022-10-24T18:41:34.067Z,96284.59
2022-10-24T18:44:34.733Z,96271.19
2022-10-24T18:47:31.813Z,96290.16
2022-10-24T18:50:29.084Z,96300.59
2022-10-24T18:53:28.833Z,96293.13
2022-10-24T18:56:26.056Z,96290.69
2022-10-24T18:59:23.111Z,96288.53
2022-10-24T19:02:56.343Z,96292.94
2022-10-24T19:06:14.231Z,96299.22
2022-10-24T19:09:20.897Z,96300.94
2022-10-24T19:12:17.876Z,96304.41
2022-10-24T19:15:15.574Z,96304.22
2022-10-24T19:18:16.253Z,96303.84
2022-10-24T19:21:13.033Z,96307.91
2022-10-24T19:24:10.546Z,96310.13
2022-10-24T19:27:07.368Z,96311.13
2022-10-24T19:30:05.783Z,96308.91
2022-10-24T19:33:02.645Z,96302.47
2022-10-24T19:36:03.917Z,96297.53
2022-10-24T19:39:00.866Z,96303.06
2022-10-24T19:41:57.685Z,96304.28
2022-10-24T19:44:56.391Z,96316.50
2022-10-24T19:47:55.461Z,96313.81
2022-10-24T19:50:52.316Z,96310.13
2022-10-24T19:53:49.753Z,96303.84
2022-10-24T19:56:47.200Z,96303.88
2022-10-24T19:59:44.269Z,96308.44
2022-10-24T20:02:41.837Z,96309.34
2022-10-24T20:05:38.732Z,96309.22
2022-10-24T20:08:35.987Z,96303.06
2022-10-24T20:11:32.880Z,96312.81
2022-10-24T20:14:29.972Z,96309.69
2022-10-24T20:17:26.795Z,96316.13
2022-10-24T20:20:25.035Z,96311.31
2022-10-24T20:23:23.832Z,96312.78
2022-10-24T20:26:24.841Z,96317.97
2022-10-24T20:29:21.786Z,96319.38
2022-10-24T20:32:18.789Z,96319.06
2022-10-24T20:35:15.704Z,96317.03
2022-10-24T20:38:12.608Z,96318.50
2022-10-24T20:41:09.494Z,96315.94
2022-10-24T20:44:07.103Z,96318.59
2022-10-24T20:47:04.234Z,96317.38
2022-10-24T20:50:01.078Z,96328.94
2022-10-24T20:52:57.927Z,96332.94
2022-10-24T20:55:54.741Z,96326.72
2022-10-24T20:58:52.960Z,96323.06
2022-10-24T21:01:49.933Z,96334.00
2022-10-24T21:04:46.904Z,96331.13
2022-10-24T21:07:43.724Z,96333.88
2022-10-24T21:10:40.596Z,96330.56
2022-10-24T21:13:37.424Z,96343.44
2022-10-24T21:16:34.981Z,96349.34
2022-10-24T21:19:31.826Z,96349.13
2022-10-24T21:22:29.136Z,96365.53
2022-10-24T21:25:25.959Z,96354.84
2022-10-24T21:28:22.799Z,96363.41
2022-10-24T21:31:21.391Z,96362.97
2022-10-24T21:34:19.089Z,96370.69
2022-10-24T21:37:15.934Z,96369.00
2022-10-24T21:40:13.020Z,96362.38
2022-10-24T21:43:09.839Z,96371.06
2022-10-24T21:46:10.877Z,96367.59
2022-10-24T21:49:08.664Z,96374.59
2022-10-24T21:52:05.493Z,96365.28
2022-10-24T21:55:02.362Z,96369.38
2022-10-24T21:57:59.434Z,96366.84
2022-10-24T22:00:56.548Z,96371.06
2022-10-24T22:03:55.397Z,96378.22
2022-10-24T22:06:53.483Z,96383.44
2022-10-24T22:09:50.500Z,96385.34
2022-10-24T22:12:47.374Z,96391.06
2022-10-24T22:18:47.001Z,96386.78
2022-10-24T22:21:47.305Z,96384.28
2022-10-24T22:24:44.174Z,96384.88
2022-10-24T22:27:41.042Z,96384.00
2022-10-24T22:30:39.972Z,96388.88
2022-10-24T22:33:38.978Z,96390.75
2022-10-24T22:37:22.896Z,96392.50
2022-10-24T22:40:28.321Z,96397.25
2022-10-24T22:43:25.724Z,96400.72
2022-10-24T22:47:29.846Z,96408.00
2022-10-24T22:50:55.556Z,96406.44
2022-10-24T22:53:52.661Z,96408.03
2022-10-24T22:56:50.472Z,96409.78
2022-10-24T22:59:47.648Z,96412.63
2022-10-24T23:02:46.220Z,96415.16
2022-10-24T23:06:00.306Z,96410.25
2022-10-24T23:08:57.140Z,96415.66
2022-10-24T23:11:54.831Z,96424.50
2022-10-24T23:14:53.257Z,96412.84
2022-10-24T23:17:50.883Z,96416.75
2022-10-24T23:21:00.516Z,96419.47
2022-10-24T23:23:57.720Z,96417.53
2022-10-24T23:27:12.709Z,96429.75
2022-10-24T23:30:20.345Z,96427.06
2022-10-24T23:33:23.884Z,96426.94
2022-10-24T23:36:25.224Z,96429.28
2022-10-24T23:39:28.055Z,96436.41
2022-10-24T23:42:25.365Z,96423.75
2022-10-24T23:45:26.743Z,96428.03
2022-10-24T23:49:04.513Z,96431.81
2022-10-24T23:52:23.824Z,96432.16
2022-10-24T23:55:21.361Z,96429.78
2022-10-24T23:58:18.312Z,96439.44
